Time;durP1;ratioP1;P1;durP2;ratioP2;P2;SDS_P1;SDS_P2;PMS_P1;PMS_P2;Temp;Humidity;BMP_temperature;BMP_pressure;BME280_temperature;BME280_humidity;BME280_pressure;Samples;Min_cycle;Max_cycle;Signal;HPM_P1;HPM_P2
2023/08/11 00:00:08;;;;;;;7.55;4.10;;;17.10;99.90;;;;;;5098908;28;20044;-58
2023/08/11 00:02:36;;;;;;;6.75;3.72;;;17.00;99.90;;;;;;5097967;28;20040;-58
2023/08/11 00:05:02;;;;;;;8.73;4.13;;;17.00;99.90;;;;;;5097776;28;20114;-58
2023/08/11 00:07:28;;;;;;;8.38;4.20;;;17.00;99.90;;;;;;5098743;28;20077;-58
2023/08/11 00:09:54;;;;;;;9.18;4.47;;;17.00;99.90;;;;;;5096909;28;20109;-57
2023/08/11 00:12:20;;;;;;;7.80;4.40;;;16.90;99.90;;;;;;5098510;28;20046;-58
2023/08/11 00:14:46;;;;;;;6.93;3.85;;;16.90;99.90;;;;;;5097039;28;20044;-58
2023/08/11 00:17:12;;;;;;;7.10;3.92;;;16.80;99.90;;;;;;5098353;28;20040;-58
2023/08/11 00:19:37;;;;;;;9.02;4.25;;;16.70;99.90;;;;;;5079007;28;20088;-58
2023/08/11 00:22:03;;;;;;;9.05;4.60;;;16.80;99.90;;;;;;5103563;28;20047;-58
2023/08/11 00:24:29;;;;;;;8.60;4.63;;;16.70;99.90;;;;;;5105352;28;20052;-58
2023/08/11 00:26:54;;;;;;;7.90;4.32;;;16.70;99.90;;;;;;5103415;28;20044;-58
2023/08/11 00:29:21;;;;;;;7.15;4.18;;;16.60;99.90;;;;;;5105365;28;20048;-58
2023/08/11 00:31:48;;;;;;;7.75;4.22;;;16.50;99.90;;;;;;5103264;28;20040;-58
2023/08/11 00:34:13;;;;;;;7.60;4.43;;;16.60;99.90;;;;;;5105062;28;20036;-58
2023/08/11 00:36:39;;;;;;;7.97;4.70;;;16.40;99.90;;;;;;5103982;28;20132;-58
2023/08/11 00:39:05;;;;;;;7.65;4.63;;;16.40;99.90;;;;;;5086307;28;20036;-58
2023/08/11 00:41:30;;;;;;;7.45;4.55;;;16.30;99.90;;;;;;5086795;28;20036;-58
2023/08/11 00:43:57;;;;;;;8.57;4.85;;;16.40;99.90;;;;;;5103463;28;20048;-58
2023/08/11 00:46:24;;;;;;;9.30;5.07;;;16.30;99.90;;;;;;5087073;28;20060;-58
2023/08/11 00:48:53;;;;;;;9.15;4.70;;;16.30;99.90;;;;;;5102867;28;20044;-58
2023/08/11 00:51:23;;;;;;;9.88;4.85;;;16.20;99.90;;;;;;5104720;28;20035;-58
2023/08/11 00:53:50;;;;;;;10.95;5.18;;;16.20;99.90;;;;;;5103879;28;20093;-58
2023/08/11 00:56:19;;;;;;;8.57;4.45;;;16.10;99.90;;;;;;5096470;28;20496;-58
2023/08/11 00:58:45;;;;;;;8.07;4.50;;;16.10;99.90;;;;;;5084837;28;20051;-58
2023/08/11 01:01:11;;;;;;;8.75;5.10;;;16.20;99.90;;;;;;5082695;28;20044;-58
2023/08/11 01:03:37;;;;;;;8.68;5.22;;;16.00;99.90;;;;;;5084680;28;20109;-58
2023/08/11 01:06:30;;;;;;;10.60;5.20;;;16.20;99.90;;;;;;5082851;28;20054;-58
2023/08/11 01:09:01;;;;;;;9.05;5.47;;;16.00;99.90;;;;;;5084141;28;20079;-58
2023/08/11 01:11:35;;;;;;;8.65;5.10;;;15.90;99.90;;;;;;5084549;28;20064;-58
2023/08/11 01:14:17;;;;;;;8.25;5.35;;;15.90;99.90;;;;;;5082223;28;20045;-58
2023/08/11 01:16:47;;;;;;;9.32;5.63;;;15.90;99.90;;;;;;5084609;28;20055;-58
2023/08/11 01:19:28;;;;;;;8.98;5.10;;;16.00;99.90;;;;;;5082826;28;20131;-58
2023/08/11 01:21:58;;;;;;;9.93;6.20;;;16.00;99.90;;;;;;5083758;28;20037;-58
2023/08/11 01:24:25;;;;;;;9.82;6.35;;;15.90;99.90;;;;;;5084717;28;20075;-57
2023/08/11 01:26:52;;;;;;;9.25;5.80;;;16.00;99.90;;;;;;5082289;28;20056;-58
2023/08/11 01:29:18;;;;;;;9.70;5.82;;;16.10;99.90;;;;;;5084857;28;20040;-58
2023/08/11 01:31:44;;;;;;;10.02;5.72;;;15.90;99.90;;;;;;5081153;28;20051;-58
2023/08/11 01:34:10;;;;;;;10.27;6.50;;;16.00;99.90;;;;;;5080378;28;20111;-58
2023/08/11 01:36:37;;;;;;;11.23;6.55;;;15.80;99.90;;;;;;5080062;28;20048;-58
2023/08/11 01:39:04;;;;;;;9.43;5.82;;;15.90;99.90;;;;;;5080386;28;20040;-58
2023/08/11 01:41:31;;;;;;;10.45;6.63;;;15.90;99.90;;;;;;5081276;28;20049;-58
2023/08/11 01:43:58;;;;;;;9.95;6.35;;;15.90;99.90;;;;;;5061261;28;20048;-58
2023/08/11 01:46:27;;;;;;;8.75;5.72;;;15.80;99.90;;;;;;5081333;28;20056;-58
2023/08/11 01:48:55;;;;;;;10.45;6.15;;;15.90;99.90;;;;;;5078259;28;20049;-58
2023/08/11 01:51:26;;;;;;;10.48;6.32;;;15.80;99.90;;;;;;5080567;28;20530;-58
2023/08/11 01:53:52;;;;;;;10.07;5.57;;;15.90;99.90;;;;;;5079649;28;20067;-57
2023/08/11 01:56:19;;;;;;;11.70;6.32;;;15.90;99.90;;;;;;5069608;28;20115;-58
2023/08/11 01:58:45;;;;;;;9.82;6.03;;;15.80;99.90;;;;;;5101466;28;20063;-58
2023/08/11 02:01:13;;;;;;;10.73;7.13;;;15.70;99.90;;;;;;5099175;28;20334;-58
2023/08/11 02:03:39;;;;;;;11.10;6.45;;;15.60;99.90;;;;;;5101324;28;20099;-58
2023/08/11 02:06:05;;;;;;;11.00;6.38;;;15.70;99.90;;;;;;5098826;28;20517;-57
2023/08/11 02:08:32;;;;;;;9.35;6.15;;;15.70;99.90;;;;;;5100640;28;20134;-57
2023/08/11 02:10:58;;;;;;;9.38;6.45;;;15.60;99.90;;;;;;5099440;28;20048;-58
2023/08/11 02:13:23;;;;;;;9.95;6.18;;;15.60;99.90;;;;;;5099591;28;20245;-58
2023/08/11 02:15:49;;;;;;;12.00;6.38;;;15.60;99.90;;;;;;5100835;28;20047;-57
2023/08/11 02:18:14;;;;;;;9.30;6.40;;;15.50;99.90;;;;;;5098313;28;20043;-58
2023/08/11 02:20:41;;;;;;;10.32;6.10;;;15.70;99.90;;;;;;5100772;28;20036;-58
2023/08/11 02:23:08;;;;;;;10.38;6.93;;;15.60;99.90;;;;;;5098574;28;20032;-58
2023/08/11 02:25:34;;;;;;;8.70;6.20;;;15.70;99.90;;;;;;5100651;28;20048;-58
2023/08/11 02:28:00;;;;;;;10.77;6.60;;;15.60;99.90;;;;;;5098973;28;20044;-58
2023/08/11 02:30:29;;;;;;;11.10;7.82;;;15.60;99.90;;;;;;5081749;28;20050;-58
2023/08/11 02:32:55;;;;;;;9.68;6.38;;;15.50;99.90;;;;;;5100138;28;20102;-58
2023/08/11 02:35:21;;;;;;;11.27;7.35;;;15.60;99.90;;;;;;5080035;28;20052;-58
2023/08/11 02:37:47;;;;;;;10.80;6.88;;;15.50;99.90;;;;;;5100381;28;20560;-58
2023/08/11 02:40:14;;;;;;;10.55;7.25;;;15.60;99.90;;;;;;5080162;28;20071;-58
2023/08/11 02:42:53;;;;;;;12.57;7.63;;;15.50;99.90;;;;;;5100403;28;20032;-58
2023/08/11 02:45:19;;;;;;;11.30;7.00;;;15.40;99.90;;;;;;5080434;28;20052;-58
2023/08/11 02:47:45;;;;;;;12.07;7.15;;;15.50;99.90;;;;;;5080501;28;20076;-58
2023/08/11 02:50:11;;;;;;;10.68;7.35;;;15.50;99.90;;;;;;5099933;28;20059;-58
2023/08/11 02:52:37;;;;;;;10.95;7.78;;;15.50;99.90;;;;;;5097716;28;20533;-57
2023/08/11 02:55:04;;;;;;;10.98;7.55;;;15.40;99.90;;;;;;5100220;28;20477;-58
2023/08/11 02:57:31;;;;;;;13.95;8.60;;;15.50;99.90;;;;;;5079869;28;20613;-57
2023/08/11 02:59:57;;;;;;;12.77;8.50;;;15.40;99.90;;;;;;5079436;28;20044;-58
2023/08/11 03:02:22;;;;;;;12.13;9.13;;;15.50;99.90;;;;;;5078245;28;20069;-57
2023/08/11 03:04:48;;;;;;;12.80;9.05;;;15.50;99.90;;;;;;5060575;28;20072;-58
2023/08/11 03:07:16;;;;;;;11.98;8.38;;;15.40;99.90;;;;;;5079221;28;20071;-58
2023/08/11 03:09:42;;;;;;;13.25;9.18;;;15.50;99.90;;;;;;5077610;28;20075;-58
2023/08/11 03:12:08;;;;;;;12.90;8.90;;;15.40;99.90;;;;;;5079442;28;20462;-57
2023/08/11 03:14:35;;;;;;;11.35;8.13;;;15.40;99.90;;;;;;5076976;28;20083;-58
2023/08/11 03:17:01;;;;;;;13.05;9.10;;;15.40;99.90;;;;;;5078958;28;20066;-58
2023/08/11 03:19:26;;;;;;;12.35;8.95;;;15.50;99.90;;;;;;5059353;28;20049;-58
2023/08/11 03:21:52;;;;;;;15.30;10.50;;;15.50;99.90;;;;;;5078567;28;20040;-57
2023/08/11 03:24:18;;;;;;;14.10;10.05;;;15.40;99.90;;;;;;5078773;28;20120;-58
2023/08/11 03:26:43;;;;;;;14.35;9.63;;;15.30;99.90;;;;;;5077487;28;20040;-58
2023/08/11 03:29:09;;;;;;;13.52;9.35;;;15.40;99.90;;;;;;5079194;28;20319;-58
2023/08/11 03:31:35;;;;;;;13.05;10.20;;;15.40;99.90;;;;;;5059176;28;20612;-58
2023/08/11 03:34:00;;;;;;;14.93;10.13;;;15.20;99.90;;;;;;5078453;28;20123;-57
2023/08/11 03:36:26;;;;;;;14.57;10.60;;;15.30;99.90;;;;;;5077521;28;20071;-58
2023/08/11 03:38:52;;;;;;;14.95;10.88;;;15.20;99.90;;;;;;5078355;28;20056;-58
2023/08/11 03:41:18;;;;;;;13.75;10.70;;;15.30;99.90;;;;;;5078576;28;20048;-57
2023/08/11 03:43:44;;;;;;;15.13;10.88;;;15.20;99.90;;;;;;5077133;28;20075;-58
2023/08/11 03:46:10;;;;;;;14.07;10.70;;;15.10;99.90;;;;;;5078984;28;20045;-57
2023/08/11 03:48:35;;;;;;;15.02;10.75;;;15.10;99.90;;;;;;5076369;28;20070;-58
2023/08/11 03:51:02;;;;;;;15.75;10.90;;;15.10;99.90;;;;;;5078653;28;20083;-57
2023/08/11 03:53:29;;;;;;;13.70;11.18;;;15.20;99.90;;;;;;5077131;28;20045;-57
2023/08/11 03:55:55;;;;;;;16.58;11.40;;;15.10;99.90;;;;;;5081996;28;20032;-58
2023/08/11 03:58:21;;;;;;;16.90;11.55;;;15.10;99.90;;;;;;5098224;28;20040;-58
2023/08/11 04:00:50;;;;;;;17.40;11.02;;;15.10;99.90;;;;;;5097234;28;20036;-58
2023/08/11 04:03:16;;;;;;;15.27;11.43;;;15.20;99.90;;;;;;5099144;28;20488;-56
2023/08/11 04:05:42;;;;;;;16.08;11.88;;;15.10;99.90;;;;;;5096760;28;20070;-58
2023/08/11 04:08:08;;;;;;;15.55;11.60;;;15.10;99.90;;;;;;5098795;28;20096;-58
2023/08/11 04:10:37;;;;;;;14.63;11.13;;;15.20;99.90;;;;;;5097148;28;20335;-58
2023/08/11 04:13:03;;;;;;;15.25;11.30;;;15.20;99.90;;;;;;5098315;28;20051;-58
2023/08/11 04:15:29;;;;;;;15.80;11.50;;;15.20;99.90;;;;;;5098289;28;21306;-58
2023/08/11 04:17:55;;;;;;;18.80;12.07;;;15.00;99.90;;;;;;5096816;28;20047;-58
2023/08/11 04:20:22;;;;;;;16.02;11.60;;;15.20;99.90;;;;;;5098942;28;20040;-57
2023/08/11 04:22:47;;;;;;;15.57;12.10;;;15.10;99.90;;;;;;5061713;28;20492;-58
2023/08/11 04:25:13;;;;;;;14.88;11.35;;;15.20;99.90;;;;;;5098231;28;20040;-58
2023/08/11 04:27:39;;;;;;;15.60;10.90;;;15.10;99.90;;;;;;5097060;28;20063;-58
2023/08/11 04:30:06;;;;;;;16.10;11.95;;;15.20;99.90;;;;;;5097853;28;20051;-58
2023/08/11 04:32:32;;;;;;;16.58;11.48;;;15.30;99.90;;;;;;5098068;28;20416;-58
2023/08/11 04:34:58;;;;;;;16.15;11.13;;;15.20;99.90;;;;;;5096932;28;20535;-58
2023/08/11 04:37:24;;;;;;;16.50;11.63;;;15.20;99.90;;;;;;5099044;28;20036;-58
2023/08/11 04:39:49;;;;;;;17.48;12.32;;;15.30;99.90;;;;;;5096005;28;20048;-57
2023/08/11 04:42:15;;;;;;;19.10;11.82;;;15.30;99.90;;;;;;5098428;28;20632;-58
2023/08/11 04:44:41;;;;;;;14.65;11.32;;;15.30;99.90;;;;;;5096645;28;20048;-58
2023/08/11 04:47:07;;;;;;;16.58;11.30;;;15.30;99.90;;;;;;5098170;28;20044;-59
2023/08/11 04:49:32;;;;;;;17.02;12.00;;;15.40;99.90;;;;;;5097312;28;20040;-57
2023/08/11 04:52:01;;;;;;;16.52;12.63;;;15.40;99.90;;;;;;5097194;28;20047;-58
2023/08/11 04:54:27;;;;;;;15.88;11.27;;;15.30;99.90;;;;;;5098739;28;20040;-57
2023/08/11 04:56:53;;;;;;;17.25;11.88;;;15.50;99.90;;;;;;5083027;28;20104;-58
2023/08/11 04:59:20;;;;;;;14.70;10.98;;;15.40;99.90;;;;;;5078306;28;20052;-57
2023/08/11 05:01:45;;;;;;;14.75;10.82;;;15.50;99.90;;;;;;5076099;28;20048;-58
2023/08/11 05:04:11;;;;;;;15.27;10.82;;;15.60;99.90;;;;;;5077679;28;20049;-58
2023/08/11 05:06:37;;;;;;;14.52;10.70;;;15.60;99.90;;;;;;5077578;28;20033;-57
2023/08/11 05:09:03;;;;;;;15.95;11.15;;;15.60;99.90;;;;;;5080707;28;20052;-58
2023/08/11 05:11:29;;;;;;;13.77;10.27;;;15.70;99.90;;;;;;5081794;28;20045;-58
2023/08/11 05:13:55;;;;;;;14.20;10.60;;;15.80;99.90;;;;;;5079476;28;20080;-57
2023/08/11 05:16:22;;;;;;;13.27;9.68;;;15.90;99.90;;;;;;5063710;28;20127;-58
2023/08/11 05:18:48;;;;;;;13.75;10.10;;;16.00;99.90;;;;;;5079160;28;20048;-58
2023/08/11 05:21:13;;;;;;;13.30;10.13;;;15.90;99.90;;;;;;5081269;28;20059;-58
2023/08/11 05:23:39;;;;;;;15.38;10.85;;;16.00;99.90;;;;;;5080232;28;20445;-58
2023/08/11 05:26:05;;;;;;;16.08;10.25;;;16.00;99.90;;;;;;5080401;28;20454;-58
2023/08/11 05:28:31;;;;;;;14.43;10.95;;;16.20;99.90;;;;;;5081518;28;20040;-58
2023/08/11 05:30:56;;;;;;;13.50;9.85;;;16.30;99.90;;;;;;5079342;28;20288;-58
2023/08/11 05:33:24;;;;;;;14.07;9.30;;;16.30;99.90;;;;;;5081677;28;20064;-58
2023/08/11 05:35:51;;;;;;;13.52;9.20;;;16.30;99.90;;;;;;5079197;28;20119;-58
2023/08/11 05:38:20;;;;;;;15.40;9.43;;;16.50;99.90;;;;;;5081493;28;20074;-58
2023/08/11 05:40:46;;;;;;;14.20;9.63;;;16.50;99.90;;;;;;5079626;28;20068;-58
2023/08/11 05:43:12;;;;;;;13.40;8.73;;;16.60;99.90;;;;;;5080441;28;20032;-58
2023/08/11 05:45:37;;;;;;;14.50;8.57;;;16.70;99.90;;;;;;5081039;28;20048;-58
2023/08/11 05:48:04;;;;;;;13.95;9.15;;;16.70;99.90;;;;;;5078721;28;20084;-58
2023/08/11 05:50:29;;;;;;;12.43;8.27;;;16.80;99.90;;;;;;5081518;28;20124;-58
2023/08/11 05:52:56;;;;;;;14.00;8.52;;;16.90;99.90;;;;;;5078904;28;20055;-59
2023/08/11 05:55:22;;;;;;;11.63;8.30;;;16.90;99.90;;;;;;5080950;28;20068;-59
2023/08/11 05:57:48;;;;;;;12.95;8.30;;;17.20;99.90;;;;;;5099381;28;20040;-58
2023/08/11 06:00:16;;;;;;;14.15;9.30;;;17.10;99.90;;;;;;5100696;28;20059;-58
2023/08/11 06:02:42;;;;;;;12.93;8.25;;;17.30;99.90;;;;;;5100896;28;20036;-58
2023/08/11 06:05:08;;;;;;;11.93;8.00;;;17.30;99.90;;;;;;5099281;28;20078;-58
2023/08/11 06:07:33;;;;;;;13.85;8.25;;;17.30;99.90;;;;;;5101416;28;20040;-58
2023/08/11 06:09:59;;;;;;;11.98;7.95;;;17.40;99.90;;;;;;5098573;28;20051;-58
2023/08/11 06:12:25;;;;;;;13.50;7.90;;;17.50;99.90;;;;;;5100869;28;20100;-59
2023/08/11 06:14:50;;;;;;;12.88;7.47;;;17.60;99.90;;;;;;5099060;28;20040;-58
2023/08/11 06:17:16;;;;;;;10.63;6.80;;;17.60;99.90;;;;;;5100408;28;20044;-58
2023/08/11 06:19:42;;;;;;;12.45;6.80;;;17.80;99.90;;;;;;5099217;28;20028;-59
2023/08/11 06:22:08;;;;;;;10.85;6.93;;;17.90;99.90;;;;;;5099144;28;20044;-59
2023/08/11 06:24:34;;;;;;;9.75;6.47;;;18.00;99.90;;;;;;5100734;28;20059;-58
2023/08/11 06:26:59;;;;;;;9.15;6.45;;;18.10;99.90;;;;;;5098287;28;20519;-59
2023/08/11 06:29:25;;;;;;;11.93;6.70;;;18.20;99.90;;;;;;5100866;28;20036;-58
2023/08/11 06:31:51;;;;;;;11.80;6.63;;;18.30;99.90;;;;;;5098646;28;20043;-58
2023/08/11 06:34:17;;;;;;;11.43;6.43;;;18.30;99.90;;;;;;5100331;28;20056;-59
2023/08/11 06:36:45;;;;;;;11.00;6.30;;;18.40;99.90;;;;;;5081024;28;20086;-57
2023/08/11 06:39:11;;;;;;;11.70;6.22;;;18.40;99.90;;;;;;5099010;28;20119;-59
2023/08/11 06:41:38;;;;;;;10.50;6.60;;;18.50;99.90;;;;;;5100389;28;20044;-58
2023/08/11 06:44:04;;;;;;;9.15;5.82;;;18.60;99.90;;;;;;5098237;28;20065;-57
2023/08/11 06:46:30;;;;;;;10.00;5.90;;;18.60;99.90;;;;;;5100289;28;20055;-58
2023/08/11 06:48:56;;;;;;;8.88;6.00;;;18.80;99.90;;;;;;5097837;28;20048;-59
2023/08/11 06:51:22;;;;;;;10.25;5.70;;;18.80;99.90;;;;;;5100116;28;20044;-58
2023/08/11 06:53:48;;;;;;;9.30;6.20;;;18.80;99.90;;;;;;5098516;28;20123;-58
2023/08/11 06:56:13;;;;;;;11.25;6.32;;;18.90;99.90;;;;;;5091745;28;20112;-59
2023/08/11 06:58:39;;;;;;;9.77;6.00;;;18.90;99.90;;;;;;5079615;28;20051;-58
2023/08/11 07:01:05;;;;;;;9.60;6.20;;;19.00;99.90;;;;;;5077851;28;20048;-59
2023/08/11 07:03:33;;;;;;;10.32;5.65;;;19.10;99.90;;;;;;5061654;28;20070;-58
2023/08/11 07:05:59;;;;;;;10.68;6.45;;;19.20;99.90;;;;;;5077753;28;20109;-58
2023/08/11 07:08:25;;;;;;;8.90;6.22;;;19.10;99.90;;;;;;5079207;28;20036;-58
2023/08/11 07:10:51;;;;;;;10.95;6.22;;;19.40;99.90;;;;;;5060085;28;20097;-58
2023/08/11 07:13:16;;;;;;;10.40;6.38;;;19.30;99.90;;;;;;5078411;28;20048;-58
2023/08/11 07:15:42;;;;;;;11.93;6.20;;;19.50;99.90;;;;;;5079306;28;20110;-57
2023/08/11 07:18:11;;;;;;;10.68;6.03;;;19.60;99.90;;;;;;5077276;28;20041;-58
2023/08/11 07:20:43;;;;;;;9.82;5.85;;;19.70;99.90;;;;;;5079301;28;20051;-59
2023/08/11 07:23:10;;;;;;;9.18;5.78;;;19.80;99.90;;;;;;5077231;28;20216;-59
2023/08/11 07:25:35;;;;;;;10.13;6.85;;;19.90;99.90;;;;;;5078851;28;20662;-59
2023/08/11 07:28:01;;;;;;;10.30;6.75;;;19.90;99.90;;;;;;5077906;28;20036;-58
2023/08/11 07:30:30;;;;;;;9.68;6.97;;;20.00;99.90;;;;;;5077176;28;20048;-59
2023/08/11 07:33:00;;;;;;;9.98;6.47;;;20.10;99.90;;;;;;5078826;28;20576;-58
2023/08/11 07:35:26;;;;;;;10.40;6.32;;;20.20;99.90;;;;;;5076991;28;20044;-58
2023/08/11 07:37:52;;;;;;;9.15;5.82;;;20.20;99.90;;;;;;5079026;28;20092;-58
2023/08/11 07:40:18;;;;;;;11.40;6.90;;;20.30;99.90;;;;;;5077160;28;20043;-58
2023/08/11 07:42:43;;;;;;;10.38;6.55;;;20.30;99.90;;;;;;5078283;28;20059;-58
2023/08/11 07:45:10;;;;;;;9.30;6.20;;;20.40;99.90;;;;;;5077961;28;20040;-58
2023/08/11 07:47:36;;;;;;;13.00;5.90;;;20.50;99.90;;;;;;5077483;28;20060;-59
2023/08/11 07:50:02;;;;;;;10.38;5.50;;;20.50;99.90;;;;;;5078625;28;20062;-59
2023/08/11 07:52:28;;;;;;;10.13;6.45;;;20.70;99.00;;;;;;5058635;28;20488;-59
2023/08/11 07:54:54;;;;;;;11.00;5.43;;;20.70;98.30;;;;;;5078890;28;20029;-59
2023/08/11 07:57:19;;;;;;;9.05;5.13;;;20.90;99.90;;;;;;5093479;28;20044;-59
2023/08/11 07:59:45;;;;;;;10.57;5.57;;;20.90;99.90;;;;;;5098677;28;20100;-58
2023/08/11 08:02:13;;;;;;;8.90;5.00;;;21.00;99.00;;;;;;5097942;28;20036;-59
2023/08/11 08:04:38;;;;;;;13.23;5.72;;;21.10;98.40;;;;;;5097727;28;20044;-58
2023/08/11 08:07:05;;;;;;;9.77;5.18;;;21.20;95.80;;;;;;5099125;28;20051;-58
2023/08/11 08:09:33;;;;;;;8.18;5.20;;;21.30;97.40;;;;;;5096521;28;20043;-59
2023/08/11 08:12:01;;;;;;;8.40;5.50;;;21.30;96.30;;;;;;5098839;28;20099;-59
2023/08/11 08:14:27;;;;;;;11.05;4.97;;;21.40;91.90;;;;;;5096662;28;20083;-58
2023/08/11 08:16:53;;;;;;;10.07;4.93;;;21.60;93.40;;;;;;5098341;28;20048;-59
2023/08/11 08:19:20;;;;;;;8.27;4.80;;;21.50;93.00;;;;;;5097209;28;20046;-58
2023/08/11 08:21:49;;;;;;;10.70;5.50;;;21.80;96.10;;;;;;5079485;28;20099;-58
2023/08/11 08:24:15;;;;;;;9.00;5.03;;;21.70;94.00;;;;;;5098677;28;20060;-58
2023/08/11 08:26:41;;;;;;;10.00;4.85;;;21.80;92.20;;;;;;5096492;28;20043;-58
2023/08/11 08:29:07;;;;;;;9.55;5.00;;;21.90;91.80;;;;;;5098692;28;20043;-59
2023/08/11 08:31:33;;;;;;;8.63;4.57;;;22.00;91.90;;;;;;5096761;28;20036;-58
2023/08/11 08:33:59;;;;;;;8.60;4.57;;;22.10;88.10;;;;;;5098277;28;20479;-58
2023/08/11 08:36:25;;;;;;;8.15;4.90;;;22.10;80.50;;;;;;5097328;28;20048;-59
2023/08/11 08:38:52;;;;;;;8.65;4.32;;;22.10;74.80;;;;;;5097697;28;20052;-60
2023/08/11 08:41:27;;;;;;;8.38;4.40;;;22.20;84.70;;;;;;5098957;28;20048;-59
2023/08/11 08:43:54;;;;;;;12.35;4.35;;;22.30;73.50;;;;;;5100364;28;20408;-60
2023/08/11 08:46:21;;;;;;;7.43;3.80;;;22.30;69.90;;;;;;5102760;28;20066;-60
2023/08/11 08:49:03;;;;;;;9.70;4.00;;;22.40;80.90;;;;;;5100078;28;20106;-59
2023/08/11 08:51:29;;;;;;;;;;;22.40;70.30;;;;;;5102678;28;20048;-61
2023/08/11 08:53:55;;;;;;;9.63;3.90;;;22.50;70.20;;;;;;5101803;28;19924;-60
2023/08/11 08:56:21;;;;;;;13.45;4.63;;;22.50;69.80;;;;;;5092236;28;20040;-60
2023/08/11 08:58:46;;;;;;;9.05;4.18;;;22.60;74.90;;;;;;5064175;28;20055;-60
2023/08/11 09:01:13;;;;;;;9.68;4.13;;;22.70;73.50;;;;;;5079720;28;20081;-60
2023/08/11 09:03:39;;;;;;;9.02;3.60;;;22.70;68.00;;;;;;5064193;28;20107;-59
2023/08/11 09:06:06;;;;;;;8.48;4.03;;;22.80;71.20;;;;;;5079989;28;20064;-60
2023/08/11 09:08:32;;;;;;;7.80;3.60;;;22.90;64.80;;;;;;5081508;28;20043;-60
2023/08/11 09:10:58;;;;;;;8.35;3.67;;;23.00;72.00;;;;;;5081170;28;20075;-59
2023/08/11 09:13:26;;;;;;;6.72;3.85;;;23.10;64.00;;;;;;5079922;28;20076;-59
2023/08/11 09:15:51;;;;;;;8.95;3.75;;;23.10;66.90;;;;;;5081980;28;20040;-58
2023/08/11 09:18:17;;;;;;;9.55;3.35;;;23.10;59.10;;;;;;5079308;28;20078;-59
2023/08/11 09:20:48;;;;;;;7.97;3.38;;;23.20;63.30;;;;;;5081597;28;20515;-58
2023/08/11 09:23:15;;;;;;;6.78;3.22;;;23.20;63.70;;;;;;5079533;28;20036;-58
2023/08/11 09:25:41;;;;;;;8.73;3.60;;;23.30;68.30;;;;;;5081006;28;20043;-59
2023/08/11 09:28:08;;;;;;;8.20;3.75;;;23.40;59.50;;;;;;5080737;28;20048;-58
2023/08/11 09:30:34;;;;;;;9.38;3.53;;;23.30;55.30;;;;;;5079853;28;20762;-59
2023/08/11 09:33:03;;;;;;;7.68;3.17;;;23.50;57.80;;;;;;5081689;28;20049;-59
2023/08/11 09:35:29;;;;;;;8.25;3.40;;;23.60;55.60;;;;;;5079231;28;20040;-59
2023/08/11 09:37:56;;;;;;;5.88;2.80;;;23.60;59.10;;;;;;5063477;28;20041;-59
2023/08/11 09:40:22;;;;;;;7.60;3.28;;;23.80;59.40;;;;;;5079320;28;20028;-58
2023/08/11 09:42:49;;;;;;;6.97;3.40;;;23.80;54.70;;;;;;5080975;28;20078;-60
2023/08/11 09:45:14;;;;;;;6.05;2.95;;;23.90;56.70;;;;;;5080353;28;20045;-59
2023/08/11 09:47:40;;;;;;;6.60;2.50;;;23.90;47.80;;;;;;5079708;28;20105;-60
2023/08/11 09:50:08;;;;;;;6.60;2.70;;;24.10;54.90;;;;;;5081072;28;20033;-60
2023/08/11 09:52:35;;;;;;;8.80;3.08;;;24.10;48.30;;;;;;5078458;28;20048;-60
2023/08/11 09:55:06;;;;;;;7.57;2.65;;;24.10;54.50;;;;;;5079977;28;20044;-60
2023/08/11 09:57:35;;;;;;;6.47;3.00;;;24.30;56.10;;;;;;5097011;28;20044;-60
2023/08/11 10:00:01;;;;;;;7.18;3.10;;;24.40;49.90;;;;;;5100375;28;20039;-60
2023/08/11 10:02:31;;;;;;;7.45;2.97;;;24.50;49.40;;;;;;5100127;28;20033;-60
2023/08/11 10:05:04;;;;;;;7.00;2.63;;;24.50;45.80;;;;;;5098954;28;20048;-60
2023/08/11 10:07:37;;;;;;;7.72;2.92;;;24.60;41.60;;;;;;5082781;28;20047;-60
2023/08/11 10:10:14;;;;;;;8.43;3.10;;;24.80;45.20;;;;;;5098742;28;20032;-61
2023/08/11 10:12:46;;;;;;;7.70;3.17;;;24.80;40.20;;;;;;5100488;28;20050;-60
2023/08/11 10:15:16;;;;;;;7.93;2.70;;;24.60;36.90;;;;;;5099384;28;20055;-59
2023/08/11 10:17:43;;;;;;;8.45;3.20;;;24.80;41.10;;;;;;5099262;28;20074;-60
2023/08/11 10:20:09;;;;;;;6.65;2.78;;;25.00;44.90;;;;;;5100295;28;20036;-60
2023/08/11 10:22:35;;;;;;;7.32;2.88;;;25.00;42.80;;;;;;5098400;28;20052;-60
2023/08/11 10:25:06;;;;;;;6.00;2.65;;;25.20;38.40;;;;;;5100102;28;20114;-60
2023/08/11 10:27:34;;;;;;;6.95;2.83;;;25.30;28.80;;;;;;5098587;28;20044;-60
2023/08/11 10:30:02;;;;;;;6.82;2.75;;;25.30;32.40;;;;;;5099915;28;20119;-60
2023/08/11 10:32:35;;;;;;;5.75;2.50;;;25.60;35.80;;;;;;5099229;28;20044;-60
2023/08/11 10:35:01;;;;;;;6.72;2.50;;;25.60;28.90;;;;;;5098479;28;20043;-60
2023/08/11 10:37:33;;;;;;;6.50;2.67;;;25.20;36.80;;;;;;5100415;28;20048;-61
2023/08/11 10:40:06;;;;;;;5.43;2.60;;;25.00;29.30;;;;;;5098421;28;20044;-60
2023/08/11 10:42:36;;;;;;;6.70;2.58;;;25.20;33.40;;;;;;5099753;28;20055;-60
2023/08/11 10:45:15;;;;;;;6.07;2.50;;;25.30;31.80;;;;;;5098412;28;20059;-60
2023/08/11 10:47:51;;;;;;;8.02;2.80;;;25.40;26.80;;;;;;5098424;28;20056;-61
2023/08/11 10:50:18;;;;;;;6.82;3.22;;;25.30;28.20;;;;;;5100221;28;20078;-60
2023/08/11 10:52:46;;;;;;;6.57;3.03;;;25.30;33.60;;;;;;5097721;28;20434;-60
2023/08/11 10:55:14;;;;;;;6.00;2.70;;;25.20;34.00;;;;;;5099441;28;20474;-61
2023/08/11 10:57:40;;;;;;;7.30;2.45;;;25.10;30.20;;;;;;5078672;28;20033;-61
2023/08/11 11:00:06;;;;;;;7.03;2.33;;;25.00;32.60;;;;;;5078791;28;20049;-60
2023/08/11 11:02:35;;;;;;;7.47;2.50;;;25.20;32.50;;;;;;5078740;28;20032;-59
2023/08/11 11:05:01;;;;;;;6.50;2.10;;;25.20;26.90;;;;;;5077398;28;20396;-60
2023/08/11 11:07:26;;;;;;;6.70;2.63;;;25.40;24.90;;;;;;5079331;28;20036;-60
2023/08/11 11:09:52;;;;;;;5.82;2.60;;;25.50;29.10;;;;;;5077359;28;20891;-60
2023/08/11 11:12:18;;;;;;;6.95;2.40;;;25.70;28.70;;;;;;5078868;28;20050;-60
2023/08/11 11:14:44;;;;;;;8.27;3.00;;;25.90;27.60;;;;;;5077708;28;20070;-60
2023/08/11 11:17:10;;;;;;;4.95;2.42;;;25.90;27.80;;;;;;5078257;28;20539;-60
2023/08/11 11:19:36;;;;;;;6.05;2.53;;;26.00;27.00;;;;;;5078247;28;20133;-59
2023/08/11 11:22:02;;;;;;;6.60;2.53;;;26.00;26.30;;;;;;5077092;28;20084;-58
2023/08/11 11:24:28;;;;;;;6.53;2.70;;;26.00;27.70;;;;;;5079188;28;20636;-60
2023/08/11 11:26:53;;;;;;;5.82;2.25;;;25.90;25.70;;;;;;5076878;28;20051;-60
2023/08/11 11:29:23;;;;;;;6.13;2.58;;;25.90;28.80;;;;;;5078819;28;20480;-60
2023/08/11 11:31:50;;;;;;;7.07;2.40;;;26.00;30.60;;;;;;5077518;28;20052;-61
2023/08/11 11:34:17;;;;;;;6.07;2.40;;;26.20;26.80;;;;;;5078497;28;20055;-61
2023/08/11 11:36:43;;;;;;;6.57;2.00;;;26.20;24.70;;;;;;5078328;28;20072;-61
2023/08/11 11:39:10;;;;;;;5.65;2.38;;;26.40;29.70;;;;;;5076847;28;20049;-61
2023/08/11 11:41:35;;;;;;;5.72;2.17;;;26.40;34.70;;;;;;5079185;28;20041;-60
2023/08/11 11:44:01;;;;;;;7.28;2.38;;;26.50;25.20;;;;;;5076625;28;20171;-60
2023/08/11 11:46:31;;;;;;;5.88;2.30;;;26.30;24.00;;;;;;5078766;28;20044;-60
2023/08/11 11:48:58;;;;;;;6.70;2.47;;;26.10;24.60;;;;;;5058543;28;20059;-60
2023/08/11 11:51:26;;;;;;;7.28;2.30;;;25.90;24.00;;;;;;5077849;28;20117;-61
2023/08/11 11:53:54;;;;;;;6.10;2.00;;;26.10;26.30;;;;;;5077940;28;20056;-60
2023/08/11 11:56:21;;;;;;;6.00;2.38;;;26.10;30.40;;;;;;5084908;28;20491;-60
2023/08/11 11:58:48;;;;;;;5.13;2.15;;;26.30;29.90;;;;;;5099019;28;20040;-60
2023/08/11 12:01:19;;;;;;;8.05;2.40;;;26.50;26.60;;;;;;5096417;28;20162;-60
2023/08/11 12:03:46;;;;;;;5.82;2.35;;;26.60;18.20;;;;;;5098742;28;20391;-60
2023/08/11 12:06:13;;;;;;;6.28;2.33;;;26.50;21.20;;;;;;5078822;28;20067;-60
2023/08/11 12:08:42;;;;;;;6.57;2.53;;;26.40;24.80;;;;;;5097708;28;20039;-60
2023/08/11 12:11:15;;;;;;;5.03;2.03;;;26.30;20.70;;;;;;5098447;28;20032;-60
2023/08/11 12:13:44;;;;;;;5.63;2.22;;;26.20;27.10;;;;;;5096242;28;20055;-60
2023/08/11 12:16:12;;;;;;;6.85;2.40;;;26.30;25.90;;;;;;5098287;28;20191;-60
2023/08/11 12:18:39;;;;;;;5.65;2.45;;;26.40;23.60;;;;;;5095800;28;20044;-60
2023/08/11 12:21:06;;;;;;;5.18;2.60;;;26.60;27.20;;;;;;5098320;28;20055;-60
2023/08/11 12:23:33;;;;;;;4.90;2.28;;;26.80;28.50;;;;;;5078665;28;20052;-60
2023/08/11 12:25:59;;;;;;;6.38;2.50;;;26.90;27.30;;;;;;5097315;28;20048;-61
2023/08/11 12:28:26;;;;;;;6.57;2.40;;;26.70;23.40;;;;;;5098637;28;20133;-61
2023/08/11 12:30:52;;;;;;;6.05;2.50;;;26.80;25.30;;;;;;5096300;28;20181;-60
2023/08/11 12:33:18;;;;;;;6.47;2.38;;;26.50;24.80;;;;;;5098385;28;20048;-61
2023/08/11 12:35:46;;;;;;;7.28;2.53;;;26.40;26.40;;;;;;5096528;28;20066;-61
2023/08/11 12:38:12;;;;;;;5.78;2.15;;;26.60;29.30;;;;;;5098255;28;20081;-60